Airfield :
LOGIN :

Register | Disclaimer

   EN    FR    IT 

 










Legend :    VFR   Marginal VFR   IFR   Intensive IFR   Very Intensive IFR
Visi :
Ceiling :
>= 8 km
>= 3000ft
5 to 8 km
1000 to 3000 ft
1500m to 5 km
500 to 1000 ft
800 to 1500m
200 to 500 ft
< 800m
< 200 ft
Symbols :   Thunderstorms  Fog  Heavy snow  Heavy precipitations  Wind > 20 kt
SIGMETs :     Misc.  Thunderstorms  Icing  Turbulence  Mountain Waves  Volcanic Ashes






- Airport Elevation : 885 ft
- IATA code : BAS


LFSB - Bale-Mulhouse

CURRENT METAR :
  • 301330Z AUTO 00000KT 9999 OVC020 08/04 Q1019 TEMPO 3000 -RA BR BKN005 FEW015TCU

EXPIRED METARs :
  • 301300Z AUTO VRB03KT 9999 FEW011 SCT016 BKN021 08/05 Q1019 TEMPO 3000 -RA BR BKN005
  • 301230Z AUTO 36007KT 9999 FEW009 SCT016 BKN022 08/06 Q1019 TEMPO 3000 -RA BR BKN005
  • 301200Z AUTO 36007KT 330V030 9999 SCT008 SCT014 BKN019 08/06 Q1019 TEMPO 3000 -RA BR BKN005
  • 301130Z AUTO 36008KT 9999 SCT010 BKN019 BKN032 08/06 Q1019 TEMPO 3000 -RA BR BKN005
  • 301100Z AUTO 35007KT 9999 BKN009 BKN017 BKN024 07/06 Q1019 TEMPO 3000 -RA BR BKN004

TAF AMD TAF LFSB
Valid from the 30 at 12:00 until the 01 at 12:00 UTC


301258Z 3012/0112 36005KT 8000 SCT008 BKN020
TEMPO 3012/3019 VRB05KT 3000 -RA BR BKN005 FEW015TCU
PROB40
TEMPO 3019/3023 VRB03KT 3000 BR
TEMPO 3023/0107 VRB03KT 1200 -DZ BR OVC002
PROB30
TEMPO 0101/0107 0800 FG
BECMG 0106/0108 BKN008 OVC015
TEMPO 0107/0110 2500 -DZ BR BKN003
Met : +33 3 89 90 31 11



MET'MAP, your aeronautical weather chart ! - Copyright ORBIFLY December 2007 - Disclaimer

ORBIFLY MET'MAP TEAM :

Programming & Development : Alexandra Zaïnal
Original concept : Baudouin d'Aumeries
Technical & hardware support : Manuel Goepfert
Assistance : Marc-Olivier Méhu




SOURCES & CREDITS :

   NOAA